sensor_id;sensor_type;location;lat;lon;timestamp;temperature;humidity
27803;DHT22;15182;48.174;11.562;2024-03-17T00:00:53;14.10;94.80
27803;DHT22;15182;48.174;11.562;2024-03-17T00:03:21;14.10;94.80
27803;DHT22;15182;48.174;11.562;2024-03-17T00:05:48;14.10;94.70
27803;DHT22;15182;48.174;11.562;2024-03-17T00:08:23;14.10;94.70
27803;DHT22;15182;48.174;11.562;2024-03-17T00:10:51;14.10;94.70
27803;DHT22;15182;48.174;11.562;2024-03-17T00:13:18;14.10;94.60
27803;DHT22;15182;48.174;11.562;2024-03-17T00:15:46;14.10;95.00
27803;DHT22;15182;48.174;11.562;2024-03-17T00:18:13;14.10;94.60
27803;DHT22;15182;48.174;11.562;2024-03-17T00:20:41;14.10;94.60
27803;DHT22;15182;48.174;11.562;2024-03-17T00:23:08;14.10;95.00
27803;DHT22;15182;48.174;11.562;2024-03-17T00:25:39;14.10;94.70
27803;DHT22;15182;48.174;11.562;2024-03-17T00:28:07;14.10;94.70
27803;DHT22;15182;48.174;11.562;2024-03-17T00:30:34;14.10;94.60
27803;DHT22;15182;48.174;11.562;2024-03-17T00:33:03;14.10;94.40
27803;DHT22;15182;48.174;11.562;2024-03-17T00:35:30;14.10;94.50
27803;DHT22;15182;48.174;11.562;2024-03-17T00:37:59;14.10;94.50
27803;DHT22;15182;48.174;11.562;2024-03-17T00:40:26;14.00;94.50
27803;DHT22;15182;48.174;11.562;2024-03-17T00:42:55;14.00;94.50
27803;DHT22;15182;48.174;11.562;2024-03-17T00:45:22;14.00;94.60
27803;DHT22;15182;48.174;11.562;2024-03-17T00:47:50;14.00;94.60
27803;DHT22;15182;48.174;11.562;2024-03-17T00:50:17;14.00;95.00
27803;DHT22;15182;48.174;11.562;2024-03-17T00:52:45;14.00;94.70
27803;DHT22;15182;48.174;11.562;2024-03-17T00:55:12;14.00;94.80
27803;DHT22;15182;48.174;11.562;2024-03-17T00:57:40;14.00;94.80
27803;DHT22;15182;48.174;11.562;2024-03-17T01:00:10;14.00;94.80
27803;DHT22;15182;48.174;11.562;2024-03-17T01:02:39;14.00;95.10
27803;DHT22;15182;48.174;11.562;2024-03-17T01:05:07;14.00;94.80
27803;DHT22;15182;48.174;11.562;2024-03-17T01:07:35;14.00;94.90
27803;DHT22;15182;48.174;11.562;2024-03-17T01:10:01;14.00;94.80
27803;DHT22;15182;48.174;11.562;2024-03-17T01:12:30;14.00;94.80
27803;DHT22;15182;48.174;11.562;2024-03-17T01:14:57;14.00;94.80
27803;DHT22;15182;48.174;11.562;2024-03-17T01:17:26;14.10;94.80
27803;DHT22;15182;48.174;11.562;2024-03-17T01:19:53;14.00;94.70
27803;DHT22;15182;48.174;11.562;2024-03-17T01:22:21;14.00;94.70
27803;DHT22;15182;48.174;11.562;2024-03-17T01:24:48;14.00;94.70
27803;DHT22;15182;48.174;11.562;2024-03-17T01:27:16;14.10;94.80
27803;DHT22;15182;48.174;11.562;2024-03-17T01:29:43;14.10;94.80
27803;DHT22;15182;48.174;11.562;2024-03-17T01:32:11;14.10;94.80
27803;DHT22;15182;48.174;11.562;2024-03-17T01:34:39;14.10;94.90
27803;DHT22;15182;48.174;11.562;2024-03-17T01:37:07;14.00;94.80
27803;DHT22;15182;48.174;11.562;2024-03-17T01:39:34;14.00;94.80
27803;DHT22;15182;48.174;11.562;2024-03-17T01:42:02;14.00;94.80
27803;DHT22;15182;48.174;11.562;2024-03-17T01:44:29;14.00;94.80
27803;DHT22;15182;48.174;11.562;2024-03-17T01:46:57;14.00;94.80
27803;DHT22;15182;48.174;11.562;2024-03-17T01:49:25;14.00;94.80
27803;DHT22;15182;48.174;11.562;2024-03-17T01:51:56;14.00;94.80
27803;DHT22;15182;48.174;11.562;2024-03-17T01:54:23;14.00;94.80
27803;DHT22;15182;48.174;11.562;2024-03-17T01:56:50;14.00;94.80
27803;DHT22;15182;48.174;11.562;2024-03-17T01:59:17;13.90;94.80
27803;DHT22;15182;48.174;11.562;2024-03-17T02:01:46;13.90;94.90
27803;DHT22;15182;48.174;11.562;2024-03-17T02:04:13;13.90;94.80
27803;DHT22;15182;48.174;11.562;2024-03-17T02:06:40;13.90;94.80
27803;DHT22;15182;48.174;11.562;2024-03-17T02:09:09;13.90;94.80
27803;DHT22;15182;48.174;11.562;2024-03-17T02:11:37;13.90;94.90
27803;DHT22;15182;48.174;11.562;2024-03-17T02:14:04;13.90;94.90
27803;DHT22;15182;48.174;11.562;2024-03-17T02:16:33;13.90;95.00
27803;DHT22;15182;48.174;11.562;2024-03-17T02:19:00;13.90;95.00
27803;DHT22;15182;48.174;11.562;2024-03-17T02:21:28;13.90;95.10
27803;DHT22;15182;48.174;11.562;2024-03-17T02:23:57;13.80;95.10
27803;DHT22;15182;48.174;11.562;2024-03-17T02:26:26;13.80;95.00
27803;DHT22;15182;48.174;11.562;2024-03-17T02:28:54;13.80;95.00
27803;DHT22;15182;48.174;11.562;2024-03-17T02:31:22;13.80;95.00
27803;DHT22;15182;48.174;11.562;2024-03-17T02:33:49;13.80;95.00
27803;DHT22;15182;48.174;11.562;2024-03-17T02:36:16;13.80;95.10
27803;DHT22;15182;48.174;11.562;2024-03-17T02:38:44;13.80;95.00
27803;DHT22;15182;48.174;11.562;2024-03-17T02:41:30;13.80;95.10
27803;DHT22;15182;48.174;11.562;2024-03-17T02:43:58;13.80;95.00
27803;DHT22;15182;48.174;11.562;2024-03-17T02:46:26;13.80;95.00
27803;DHT22;15182;48.174;11.562;2024-03-17T02:48:55;13.80;95.00
27803;DHT22;15182;48.174;11.562;2024-03-17T02:51:23;13.80;95.00
27803;DHT22;15182;48.174;11.562;2024-03-17T02:53:51;13.80;95.00
27803;DHT22;15182;48.174;11.562;2024-03-17T02:56:19;13.80;95.00
27803;DHT22;15182;48.174;11.562;2024-03-17T02:58:48;13.80;95.00
27803;DHT22;15182;48.174;11.562;2024-03-17T03:01:17;13.80;95.00
27803;DHT22;15182;48.174;11.562;2024-03-17T03:03:45;13.80;95.00
27803;DHT22;15182;48.174;11.562;2024-03-17T03:06:16;13.80;95.00
27803;DHT22;15182;48.174;11.562;2024-03-17T03:08:45;13.80;95.00
27803;DHT22;15182;48.174;11.562;2024-03-17T03:11:16;13.80;95.00
27803;DHT22;15182;48.174;11.562;2024-03-17T03:13:44;13.80;95.00
27803;DHT22;15182;48.174;11.562;2024-03-17T03:16:14;13.80;95.00
27803;DHT22;15182;48.174;11.562;2024-03-17T03:18:42;13.80;95.00
27803;DHT22;15182;48.174;11.562;2024-03-17T03:21:11;13.80;94.90
27803;DHT22;15182;48.174;11.562;2024-03-17T03:23:39;13.80;95.00
27803;DHT22;15182;48.174;11.562;2024-03-17T03:26:07;13.80;95.00
27803;DHT22;15182;48.174;11.562;2024-03-17T03:28:36;13.70;94.90
27803;DHT22;15182;48.174;11.562;2024-03-17T03:31:04;13.70;94.80
27803;DHT22;15182;48.174;11.562;2024-03-17T03:33:34;13.80;94.90
27803;DHT22;15182;48.174;11.562;2024-03-17T03:36:08;13.70;94.90
27803;DHT22;15182;48.174;11.562;2024-03-17T03:38:36;13.70;94.80
27803;DHT22;15182;48.174;11.562;2024-03-17T03:41:09;13.70;94.80
27803;DHT22;15182;48.174;11.562;2024-03-17T03:43:37;13.70;94.80
27803;DHT22;15182;48.174;11.562;2024-03-17T03:46:07;13.70;94.70
27803;DHT22;15182;48.174;11.562;2024-03-17T03:48:37;13.80;94.70
27803;DHT22;15182;48.174;11.562;2024-03-17T03:51:05;13.70;94.60
27803;DHT22;15182;48.174;11.562;2024-03-17T03:53:34;13.80;94.70
27803;DHT22;15182;48.174;11.562;2024-03-17T03:56:03;13.80;94.70
27803;DHT22;15182;48.174;11.562;2024-03-17T03:58:32;13.70;94.70
27803;DHT22;15182;48.174;11.562;2024-03-17T04:01:03;13.80;94.70
27803;DHT22;15182;48.174;11.562;2024-03-17T04:03:32;13.70;94.70
27803;DHT22;15182;48.174;11.562;2024-03-17T04:06:06;13.70;94.80
27803;DHT22;15182;48.174;11.562;2024-03-17T04:08:35;13.70;94.80
27803;DHT22;15182;48.174;11.562;2024-03-17T04:11:06;13.70;94.80
27803;DHT22;15182;48.174;11.562;2024-03-17T04:13:34;13.70;94.80
27803;DHT22;15182;48.174;11.562;2024-03-17T04:16:04;13.70;94.80
27803;DHT22;15182;48.174;11.562;2024-03-17T04:18:33;13.70;94.90
27803;DHT22;15182;48.174;11.562;2024-03-17T04:21:03;13.70;94.90
27803;DHT22;15182;48.174;11.562;2024-03-17T04:23:33;13.70;94.90
27803;DHT22;15182;48.174;11.562;2024-03-17T04:26:02;13.70;94.80
27803;DHT22;15182;48.174;11.562;2024-03-17T04:28:30;13.70;94.80
27803;DHT22;15182;48.174;11.562;2024-03-17T04:31:07;13.70;94.80
27803;DHT22;15182;48.174;11.562;2024-03-17T04:33:37;13.70;94.80
27803;DHT22;15182;48.174;11.562;2024-03-17T04:36:07;13.70;94.80
27803;DHT22;15182;48.174;11.562;2024-03-17T04:38:35;13.70;94.80
27803;DHT22;15182;48.174;11.562;2024-03-17T04:41:04;13.70;94.80
27803;DHT22;15182;48.174;11.562;2024-03-17T04:43:34;13.70;94.80
27803;DHT22;15182;48.174;11.562;2024-03-17T04:46:03;13.70;94.80
27803;DHT22;15182;48.174;11.562;2024-03-17T04:48:33;13.70;94.80
27803;DHT22;15182;48.174;11.562;2024-03-17T04:51:01;13.70;94.70
27803;DHT22;15182;48.174;11.562;2024-03-17T04:53:30;13.60;94.70
27803;DHT22;15182;48.174;11.562;2024-03-17T04:56:02;13.60;94.70
27803;DHT22;15182;48.174;11.562;2024-03-17T04:58:31;13.60;94.80
27803;DHT22;15182;48.174;11.562;2024-03-17T05:01:04;13.60;94.80
27803;DHT22;15182;48.174;11.562;2024-03-17T05:03:32;13.60;94.80
27803;DHT22;15182;48.174;11.562;2024-03-17T05:06:01;13.60;94.80
27803;DHT22;15182;48.174;11.562;2024-03-17T05:08:32;13.60;94.90
27803;DHT22;15182;48.174;11.562;2024-03-17T05:11:03;13.60;94.90
27803;DHT22;15182;48.174;11.562;2024-03-17T05:13:33;13.60;94.90
27803;DHT22;15182;48.174;11.562;2024-03-17T05:16:02;13.60;95.00
27803;DHT22;15182;48.174;11.562;2024-03-17T05:18:30;13.60;94.90
27803;DHT22;15182;48.174;11.562;2024-03-17T05:20:59;13.60;94.90
27803;DHT22;15182;48.174;11.562;2024-03-17T05:23:27;13.50;94.90
27803;DHT22;15182;48.174;11.562;2024-03-17T05:25:58;13.60;94.90
27803;DHT22;15182;48.174;11.562;2024-03-17T05:28:27;13.50;94.90
27803;DHT22;15182;48.174;11.562;2024-03-17T05:30:56;13.50;94.90
27803;DHT22;15182;48.174;11.562;2024-03-17T05:33:25;13.50;94.90
27803;DHT22;15182;48.174;11.562;2024-03-17T05:35:54;13.50;94.90
27803;DHT22;15182;48.174;11.562;2024-03-17T05:38:24;13.50;94.90
27803;DHT22;15182;48.174;11.562;2024-03-17T05:40:54;13.50;94.90
27803;DHT22;15182;48.174;11.562;2024-03-17T05:43:24;13.50;95.00
27803;DHT22;15182;48.174;11.562;2024-03-17T05:45:52;13.50;95.00
27803;DHT22;15182;48.174;11.562;2024-03-17T05:48:21;13.50;95.10
27803;DHT22;15182;48.174;11.562;2024-03-17T05:50:50;13.50;95.10
27803;DHT22;15182;48.174;11.562;2024-03-17T05:53:18;13.50;95.10
27803;DHT22;15182;48.174;11.562;2024-03-17T05:55:46;13.40;95.10
27803;DHT22;15182;48.174;11.562;2024-03-17T05:58:14;13.50;95.20
27803;DHT22;15182;48.174;11.562;2024-03-17T06:00:44;13.50;95.20
27803;DHT22;15182;48.174;11.562;2024-03-17T06:03:12;13.50;95.20
27803;DHT22;15182;48.174;11.562;2024-03-17T06:05:41;13.50;95.20
27803;DHT22;15182;48.174;11.562;2024-03-17T06:08:09;13.50;95.20
27803;DHT22;15182;48.174;11.562;2024-03-17T06:10:42;13.50;95.20
27803;DHT22;15182;48.174;11.562;2024-03-17T06:13:10;13.40;95.10
27803;DHT22;15182;48.174;11.562;2024-03-17T06:15:39;13.50;95.10
27803;DHT22;15182;48.174;11.562;2024-03-17T06:18:10;13.50;95.10
27803;DHT22;15182;48.174;11.562;2024-03-17T06:20:41;13.50;95.10
27803;DHT22;15182;48.174;11.562;2024-03-17T06:23:09;13.50;95.10
27803;DHT22;15182;48.174;11.562;2024-03-17T06:25:39;13.50;95.00
27803;DHT22;15182;48.174;11.562;2024-03-17T06:28:08;13.50;95.00
27803;DHT22;15182;48.174;11.562;2024-03-17T06:30:40;13.50;94.90
27803;DHT22;15182;48.174;11.562;2024-03-17T06:33:10;13.50;94.80
27803;DHT22;15182;48.174;11.562;2024-03-17T06:35:38;13.50;94.80
27803;DHT22;15182;48.174;11.562;2024-03-17T06:38:07;13.60;94.80
27803;DHT22;15182;48.174;11.562;2024-03-17T06:40:36;13.50;94.70
27803;DHT22;15182;48.174;11.562;2024-03-17T06:43:04;13.60;94.60
27803;DHT22;15182;48.174;11.562;2024-03-17T06:45:34;13.60;94.60
27803;DHT22;15182;48.174;11.562;2024-03-17T06:48:02;13.60;94.90
27803;DHT22;15182;48.174;11.562;2024-03-17T06:50:31;13.60;94.50
27803;DHT22;15182;48.174;11.562;2024-03-17T06:52:59;13.60;94.30
27803;DHT22;15182;48.174;11.562;2024-03-17T06:55:27;13.60;94.10
27803;DHT22;15182;48.174;11.562;2024-03-17T06:57:55;13.60;94.00
27803;DHT22;15182;48.174;11.562;2024-03-17T07:00:23;13.60;93.90
27803;DHT22;15182;48.174;11.562;2024-03-17T07:02:51;13.60;94.00
27803;DHT22;15182;48.174;11.562;2024-03-17T07:05:19;13.60;94.00
27803;DHT22;15182;48.174;11.562;2024-03-17T07:07:48;13.60;94.10
27803;DHT22;15182;48.174;11.562;2024-03-17T07:10:18;13.70;94.10
27803;DHT22;15182;48.174;11.562;2024-03-17T07:12:46;13.70;94.10
27803;DHT22;15182;48.174;11.562;2024-03-17T07:15:14;13.70;94.10
27803;DHT22;15182;48.174;11.562;2024-03-17T07:17:41;13.70;94.10
27803;DHT22;15182;48.174;11.562;2024-03-17T07:20:10;13.80;94.10
27803;DHT22;15182;48.174;11.562;2024-03-17T07:22:39;13.80;94.00
27803;DHT22;15182;48.174;11.562;2024-03-17T07:25:08;13.80;94.40
27803;DHT22;15182;48.174;11.562;2024-03-17T07:27:36;13.80;93.90
27803;DHT22;15182;48.174;11.562;2024-03-17T07:30:06;13.90;94.00
27803;DHT22;15182;48.174;11.562;2024-03-17T07:32:35;13.80;94.00
27803;DHT22;15182;48.174;11.562;2024-03-17T07:35:03;13.90;94.00
27803;DHT22;15182;48.174;11.562;2024-03-17T07:37:32;13.90;94.00
27803;DHT22;15182;48.174;11.562;2024-03-17T07:40:00;13.90;93.80
27803;DHT22;15182;48.174;11.562;2024-03-17T07:42:32;14.00;94.10
27803;DHT22;15182;48.174;11.562;2024-03-17T07:45:00;14.00;94.00
27803;DHT22;15182;48.174;11.562;2024-03-17T07:47:28;14.00;93.70
27803;DHT22;15182;48.174;11.562;2024-03-17T07:50:02;14.10;93.70
27803;DHT22;15182;48.174;11.562;2024-03-17T07:52:32;14.10;93.70
27803;DHT22;15182;48.174;11.562;2024-03-17T07:55:00;14.20;93.80
27803;DHT22;15182;48.174;11.562;2024-03-17T07:57:29;14.20;93.70
27803;DHT22;15182;48.174;11.562;2024-03-17T07:59:57;14.30;93.70
27803;DHT22;15182;48.174;11.562;2024-03-17T08:02:25;14.30;94.00
27803;DHT22;15182;48.174;11.562;2024-03-17T08:04:53;14.40;93.50
27803;DHT22;15182;48.174;11.562;2024-03-17T08:07:21;14.40;93.50
27803;DHT22;15182;48.174;11.562;2024-03-17T08:09:49;14.40;93.50
27803;DHT22;15182;48.174;11.562;2024-03-17T08:12:17;14.50;93.50
27803;DHT22;15182;48.174;11.562;2024-03-17T08:14:46;14.60;93.50
27803;DHT22;15182;48.174;11.562;2024-03-17T08:17:14;14.60;93.30
27803;DHT22;15182;48.174;11.562;2024-03-17T08:19:42;14.70;93.30
27803;DHT22;15182;48.174;11.562;2024-03-17T08:22:09;14.70;93.30
27803;DHT22;15182;48.174;11.562;2024-03-17T08:24:37;14.80;93.40
27803;DHT22;15182;48.174;11.562;2024-03-17T08:27:05;14.80;93.40
27803;DHT22;15182;48.174;11.562;2024-03-17T08:29:34;14.90;93.40
27803;DHT22;15182;48.174;11.562;2024-03-17T08:32:04;15.00;93.40
27803;DHT22;15182;48.174;11.562;2024-03-17T08:34:34;15.00;93.50
27803;DHT22;15182;48.174;11.562;2024-03-17T08:37:02;15.10;93.60
27803;DHT22;15182;48.174;11.562;2024-03-17T08:39:30;15.10;93.40
27803;DHT22;15182;48.174;11.562;2024-03-17T08:41:58;15.20;93.40
27803;DHT22;15182;48.174;11.562;2024-03-17T08:44:26;15.20;93.20
27803;DHT22;15182;48.174;11.562;2024-03-17T08:46:54;15.30;93.20
27803;DHT22;15182;48.174;11.562;2024-03-17T08:49:25;15.30;93.10
27803;DHT22;15182;48.174;11.562;2024-03-17T08:51:53;15.40;93.30
27803;DHT22;15182;48.174;11.562;2024-03-17T08:54:20;15.40;93.20
27803;DHT22;15182;48.174;11.562;2024-03-17T08:56:48;15.50;93.10
27803;DHT22;15182;48.174;11.562;2024-03-17T08:59:16;15.50;92.90
27803;DHT22;15182;48.174;11.562;2024-03-17T09:01:44;15.60;92.90
27803;DHT22;15182;48.174;11.562;2024-03-17T09:04:12;15.60;92.90
27803;DHT22;15182;48.174;11.562;2024-03-17T09:06:41;15.70;93.00
27803;DHT22;15182;48.174;11.562;2024-03-17T09:09:09;15.80;93.00
27803;DHT22;15182;48.174;11.562;2024-03-17T09:11:40;15.80;93.00
27803;DHT22;15182;48.174;11.562;2024-03-17T09:14:08;15.90;93.00
27803;DHT22;15182;48.174;11.562;2024-03-17T09:16:37;16.00;92.70
27803;DHT22;15182;48.174;11.562;2024-03-17T09:19:05;16.10;92.30
27803;DHT22;15182;48.174;11.562;2024-03-17T09:21:33;16.20;92.30
27803;DHT22;15182;48.174;11.562;2024-03-17T09:24:03;16.20;92.40
27803;DHT22;15182;48.174;11.562;2024-03-17T09:26:31;16.30;92.30
27803;DHT22;15182;48.174;11.562;2024-03-17T09:29:00;16.40;92.20
27803;DHT22;15182;48.174;11.562;2024-03-17T09:31:29;16.50;92.00
27803;DHT22;15182;48.174;11.562;2024-03-17T09:34:00;16.70;92.00
27803;DHT22;15182;48.174;11.562;2024-03-17T09:36:27;16.80;92.00
27803;DHT22;15182;48.174;11.562;2024-03-17T09:38:57;16.90;92.00
27803;DHT22;15182;48.174;11.562;2024-03-17T09:41:28;17.10;92.00
27803;DHT22;15182;48.174;11.562;2024-03-17T09:43:57;17.30;91.60
27803;DHT22;15182;48.174;11.562;2024-03-17T09:46:26;17.50;91.40
27803;DHT22;15182;48.174;11.562;2024-03-17T09:48:56;17.70;91.20
27803;DHT22;15182;48.174;11.562;2024-03-17T09:51:25;17.90;90.80
27803;DHT22;15182;48.174;11.562;2024-03-17T09:53:53;18.00;90.20
27803;DHT22;15182;48.174;11.562;2024-03-17T09:56:21;18.10;90.40
27803;DHT22;15182;48.174;11.562;2024-03-17T09:58:51;18.20;90.00
27803;DHT22;15182;48.174;11.562;2024-03-17T10:01:19;18.20;89.80
27803;DHT22;15182;48.174;11.562;2024-03-17T10:03:48;18.30;90.00
27803;DHT22;15182;48.174;11.562;2024-03-17T10:06:22;18.40;89.20
27803;DHT22;15182;48.174;11.562;2024-03-17T10:08:51;18.60;88.90
27803;DHT22;15182;48.174;11.562;2024-03-17T10:11:22;18.70;88.20
27803;DHT22;15182;48.174;11.562;2024-03-17T10:14:01;18.80;88.10
27803;DHT22;15182;48.174;11.562;2024-03-17T10:16:31;18.90;87.10
27803;DHT22;15182;48.174;11.562;2024-03-17T10:19:07;19.10;87.50
27803;DHT22;15182;48.174;11.562;2024-03-17T10:21:37;19.20;86.00
27803;DHT22;15182;48.174;11.562;2024-03-17T10:24:08;19.40;86.90
27803;DHT22;15182;48.174;11.562;2024-03-17T10:26:38;19.50;85.30
27803;DHT22;15182;48.174;11.562;2024-03-17T10:29:22;19.60;84.90
27803;DHT22;15182;48.174;11.562;2024-03-17T10:31:53;19.60;85.30
27803;DHT22;15182;48.174;11.562;2024-03-17T10:34:23;19.50;84.50
27803;DHT22;15182;48.174;11.562;2024-03-17T10:36:52;19.50;84.00
27803;DHT22;15182;48.174;11.562;2024-03-17T10:39:33;19.40;83.60
27803;DHT22;15182;48.174;11.562;2024-03-17T10:42:03;19.30;83.40
27803;DHT22;15182;48.174;11.562;2024-03-17T10:44:34;19.20;83.70
27803;DHT22;15182;48.174;11.562;2024-03-17T10:47:04;19.10;83.50
27803;DHT22;15182;48.174;11.562;2024-03-17T10:49:37;19.00;83.40
27803;DHT22;15182;48.174;11.562;2024-03-17T10:52:07;19.00;83.50
27803;DHT22;15182;48.174;11.562;2024-03-17T10:54:47;19.00;83.40
27803;DHT22;15182;48.174;11.562;2024-03-17T10:57:24;19.00;83.00
27803;DHT22;15182;48.174;11.562;2024-03-17T10:59:59;19.00;83.20
27803;DHT22;15182;48.174;11.562;2024-03-17T11:02:30;19.00;83.10
27803;DHT22;15182;48.174;11.562;2024-03-17T11:05:00;19.10;83.60
27803;DHT22;15182;48.174;11.562;2024-03-17T11:07:30;19.20;83.10
27803;DHT22;15182;48.174;11.562;2024-03-17T11:09:59;19.30;82.60
27803;DHT22;15182;48.174;11.562;2024-03-17T11:12:48;19.50;82.10
27803;DHT22;15182;48.174;11.562;2024-03-17T11:15:39;19.70;81.80
27803;DHT22;15182;48.174;11.562;2024-03-17T11:18:35;19.90;82.30
27803;DHT22;15182;48.174;11.562;2024-03-17T11:21:18;20.10;81.70
27803;DHT22;15182;48.174;11.562;2024-03-17T11:23:59;20.30;81.00
27803;DHT22;15182;48.174;11.562;2024-03-17T11:26:32;20.40;80.60
27803;DHT22;15182;48.174;11.562;2024-03-17T11:29:01;20.50;81.00
27803;DHT22;15182;48.174;11.562;2024-03-17T11:31:42;20.60;80.80
27803;DHT22;15182;48.174;11.562;2024-03-17T11:34:32;20.70;79.50
27803;DHT22;15182;48.174;11.562;2024-03-17T11:37:01;20.80;79.40
27803;DHT22;15182;48.174;11.562;2024-03-17T11:39:51;20.90;79.50
27803;DHT22;15182;48.174;11.562;2024-03-17T11:42:23;20.90;77.20
27803;DHT22;15182;48.174;11.562;2024-03-17T11:45:03;20.80;77.90
27803;DHT22;15182;48.174;11.562;2024-03-17T11:47:36;20.70;76.60
27803;DHT22;15182;48.174;11.562;2024-03-17T11:50:06;20.50;77.20
27803;DHT22;15182;48.174;11.562;2024-03-17T11:52:36;20.40;77.10
27803;DHT22;15182;48.174;11.562;2024-03-17T11:55:04;20.30;77.60
27803;DHT22;15182;48.174;11.562;2024-03-17T11:57:32;20.20;77.60
27803;DHT22;15182;48.174;11.562;2024-03-17T12:00:00;20.10;77.50
27803;DHT22;15182;48.174;11.562;2024-03-17T12:02:50;20.10;77.40
27803;DHT22;15182;48.174;11.562;2024-03-17T12:05:17;20.00;77.30
27803;DHT22;15182;48.174;11.562;2024-03-17T12:07:47;19.90;77.50
27803;DHT22;15182;48.174;11.562;2024-03-17T12:10:14;19.80;77.50
27803;DHT22;15182;48.174;11.562;2024-03-17T12:12:47;19.80;77.50
27803;DHT22;15182;48.174;11.562;2024-03-17T12:15:17;19.70;78.20
27803;DHT22;15182;48.174;11.562;2024-03-17T12:17:53;19.70;77.80
27803;DHT22;15182;48.174;11.562;2024-03-17T12:20:20;19.70;77.10
27803;DHT22;15182;48.174;11.562;2024-03-17T12:22:49;19.70;78.00
27803;DHT22;15182;48.174;11.562;2024-03-17T12:25:19;19.70;78.50
27803;DHT22;15182;48.174;11.562;2024-03-17T12:27:49;19.70;78.00
27803;DHT22;15182;48.174;11.562;2024-03-17T12:30:16;19.70;77.90
27803;DHT22;15182;48.174;11.562;2024-03-17T12:32:45;19.70;77.90
27803;DHT22;15182;48.174;11.562;2024-03-17T12:35:15;19.70;78.20
27803;DHT22;15182;48.174;11.562;2024-03-17T12:37:44;19.70;77.70
27803;DHT22;15182;48.174;11.562;2024-03-17T12:40:18;19.70;77.70
27803;DHT22;15182;48.174;11.562;2024-03-17T12:42:48;19.70;77.50
27803;DHT22;15182;48.174;11.562;2024-03-17T12:45:19;19.60;77.60
27803;DHT22;15182;48.174;11.562;2024-03-17T12:47:49;19.60;77.20
27803;DHT22;15182;48.174;11.562;2024-03-17T12:50:18;19.60;77.70
27803;DHT22;15182;48.174;11.562;2024-03-17T12:52:54;19.60;77.70
27803;DHT22;15182;48.174;11.562;2024-03-17T12:55:22;19.50;77.50
27803;DHT22;15182;48.174;11.562;2024-03-17T12:58:08;19.50;77.90
27803;DHT22;15182;48.174;11.562;2024-03-17T13:00:59;19.50;77.90
27803;DHT22;15182;48.174;11.562;2024-03-17T13:03:28;19.50;77.90
27803;DHT22;15182;48.174;11.562;2024-03-17T13:06:00;19.50;78.50
27803;DHT22;15182;48.174;11.562;2024-03-17T13:08:29;19.60;78.10
27803;DHT22;15182;48.174;11.562;2024-03-17T13:10:57;19.60;78.40
27803;DHT22;15182;48.174;11.562;2024-03-17T13:13:26;19.60;78.10
27803;DHT22;15182;48.174;11.562;2024-03-17T13:15:54;19.60;77.90
27803;DHT22;15182;48.174;11.562;2024-03-17T13:18:22;19.60;77.80
27803;DHT22;15182;48.174;11.562;2024-03-17T13:20:50;19.50;77.90
27803;DHT22;15182;48.174;11.562;2024-03-17T13:23:21;19.50;77.90
27803;DHT22;15182;48.174;11.562;2024-03-17T13:25:52;19.50;77.70
27803;DHT22;15182;48.174;11.562;2024-03-17T13:28:20;19.40;78.00
27803;DHT22;15182;48.174;11.562;2024-03-17T13:30:48;19.40;78.80
27803;DHT22;15182;48.174;11.562;2024-03-17T13:33:15;19.40;78.10
27803;DHT22;15182;48.174;11.562;2024-03-17T13:35:44;19.40;78.20
27803;DHT22;15182;48.174;11.562;2024-03-17T13:38:12;19.40;78.10
27803;DHT22;15182;48.174;11.562;2024-03-17T13:40:42;19.40;78.10
27803;DHT22;15182;48.174;11.562;2024-03-17T13:43:10;19.30;77.90
27803;DHT22;15182;48.174;11.562;2024-03-17T13:45:39;19.30;78.10
27803;DHT22;15182;48.174;11.562;2024-03-17T13:48:09;19.30;78.30
27803;DHT22;15182;48.174;11.562;2024-03-17T13:50:38;19.30;78.10
27803;DHT22;15182;48.174;11.562;2024-03-17T13:53:08;19.30;78.10
27803;DHT22;15182;48.174;11.562;2024-03-17T13:55:36;19.20;78.30
27803;DHT22;15182;48.174;11.562;2024-03-17T13:58:06;19.20;78.10
27803;DHT22;15182;48.174;11.562;2024-03-17T14:00:34;19.20;78.00
27803;DHT22;15182;48.174;11.562;2024-03-17T14:03:05;19.20;78.30
27803;DHT22;15182;48.174;11.562;2024-03-17T14:05:34;19.20;78.50
27803;DHT22;15182;48.174;11.562;2024-03-17T14:08:03;19.20;78.50
27803;DHT22;15182;48.174;11.562;2024-03-17T14:10:31;19.20;78.40
27803;DHT22;15182;48.174;11.562;2024-03-17T14:12:59;19.20;78.50
27803;DHT22;15182;48.174;11.562;2024-03-17T14:15:28;19.20;78.60
27803;DHT22;15182;48.174;11.562;2024-03-17T14:17:56;19.20;78.40
27803;DHT22;15182;48.174;11.562;2024-03-17T14:20:24;19.20;78.40
27803;DHT22;15182;48.174;11.562;2024-03-17T14:22:51;19.20;78.30
27803;DHT22;15182;48.174;11.562;2024-03-17T14:25:22;19.20;78.20
27803;DHT22;15182;48.174;11.562;2024-03-17T14:27:51;19.10;78.20
27803;DHT22;15182;48.174;11.562;2024-03-17T14:30:19;19.10;78.30
27803;DHT22;15182;48.174;11.562;2024-03-17T14:32:49;19.10;78.40
27803;DHT22;15182;48.174;11.562;2024-03-17T14:35:18;19.10;78.10
27803;DHT22;15182;48.174;11.562;2024-03-17T14:37:47;19.00;78.40
27803;DHT22;15182;48.174;11.562;2024-03-17T14:40:15;19.00;78.40
27803;DHT22;15182;48.174;11.562;2024-03-17T14:42:50;19.00;78.60
27803;DHT22;15182;48.174;11.562;2024-03-17T14:45:19;19.00;78.60
27803;DHT22;15182;48.174;11.562;2024-03-17T14:47:49;18.90;78.50
27803;DHT22;15182;48.174;11.562;2024-03-17T14:50:18;18.90;78.70
27803;DHT22;15182;48.174;11.562;2024-03-17T14:52:46;18.90;78.70
27803;DHT22;15182;48.174;11.562;2024-03-17T14:55:14;18.90;78.70
27803;DHT22;15182;48.174;11.562;2024-03-17T14:57:42;18.80;78.80
27803;DHT22;15182;48.174;11.562;2024-03-17T15:00:11;18.80;78.80
27803;DHT22;15182;48.174;11.562;2024-03-17T15:02:45;18.80;78.80
27803;DHT22;15182;48.174;11.562;2024-03-17T15:05:15;18.80;78.80
27803;DHT22;15182;48.174;11.562;2024-03-17T15:07:44;18.80;78.80
27803;DHT22;15182;48.174;11.562;2024-03-17T15:10:14;18.80;78.90
27803;DHT22;15182;48.174;11.562;2024-03-17T15:12:46;18.70;78.90
27803;DHT22;15182;48.174;11.562;2024-03-17T15:15:14;18.70;78.90
27803;DHT22;15182;48.174;11.562;2024-03-17T15:17:43;18.70;79.10
27803;DHT22;15182;48.174;11.562;2024-03-17T15:20:11;18.60;79.80
27803;DHT22;15182;48.174;11.562;2024-03-17T15:22:44;18.60;79.10
27803;DHT22;15182;48.174;11.562;2024-03-17T15:25:13;18.60;79.30
27803;DHT22;15182;48.174;11.562;2024-03-17T15:27:41;18.60;79.30
27803;DHT22;15182;48.174;11.562;2024-03-17T15:30:12;18.60;79.30